Time;durP1;ratioP1;P1;durP2;ratioP2;P2;SDS_P1;SDS_P2;PMS_P1;PMS_P2;Temp;Humidity;BMP_temperature;BMP_pressure;BME280_temperature;BME280_humidity;BME280_pressure;Samples;Min_cycle;Max_cycle;Signal;HPM_P1;HPM_P2
2022/06/10 00:01:04;;;;;;;5.68;2.80;;;;;;;-144.94;61.79;76892.47;5057691;28;20046;-91
2022/06/10 00:03:30;;;;;;;;;;;;;;;-144.94;61.71;76884.22;5058709;28;20060;-88
2022/06/10 00:06:00;;;;;;;5.22;2.60;;;;;;;-144.94;61.62;76884.22;5057773;28;19919;-91
2022/06/10 00:08:29;;;;;;;6.90;2.63;;;;;;;-144.94;61.42;76892.47;5058541;28;20108;-86
2022/06/10 00:10:55;;;;;;;8.18;2.90;;;;;;;-144.94;61.39;76886.28;5039416;28;20025;-87
2022/06/10 00:13:23;;;;;;;5.75;2.45;;;;;;;-144.94;61.61;76900.69;5056195;28;20044;-86
2022/06/10 00:15:50;;;;;;;4.68;2.20;;;;;;;-144.94;62.18;76906.88;5056482;28;20047;-85
2022/06/10 00:18:16;;;;;;;7.93;2.70;;;;;;;-144.94;61.37;76892.47;5056314;28;20025;-86
2022/06/10 00:20:42;;;;;;;4.55;2.00;;;;;;;-144.94;61.42;76892.47;5056494;28;20395;-87
2022/06/10 00:23:08;;;;;;;4.57;2.50;;;;;;;-144.94;61.31;76900.69;5056444;28;20036;-86
2022/06/10 00:25:33;;;;;;;;;;;;;;;-144.94;61.53;76900.69;5056971;28;20064;-87
2022/06/10 00:27:58;;;;;;;5.55;2.40;;;;;;;-144.94;61.45;76908.94;5056158;28;19908;-90
2022/06/10 00:30:28;;;;;;;4.30;2.13;;;;;;;-144.94;61.40;76900.69;5056456;28;20358;-87
2022/06/10 00:32:55;;;;;;;4.78;2.83;;;;;;;-144.94;61.42;76906.88;5056585;28;20058;-89
2022/06/10 00:35:20;;;;;;;;;;;;;;;-144.94;61.51;76908.94;5056573;28;20045;-89
2022/06/10 00:37:45;;;;;;;5.45;2.17;;;;;;;-144.94;61.40;76896.59;5056116;28;19974;-90
2022/06/10 00:40:16;;;;;;;5.22;2.45;;;;;;;-144.94;61.75;76908.94;5056906;28;20024;-88
2022/06/10 00:42:42;;;;;;;6.85;2.17;;;;;;;-144.94;61.75;76923.34;5056185;28;20542;-89
2022/06/10 00:45:47;;;;;;;6.77;2.20;;;;;;;-144.94;61.78;76919.22;5055443;28;20063;-88
2022/06/10 00:48:17;;;;;;;5.10;2.17;;;;;;;-144.94;62.03;76921.28;5055807;28;20271;-88
2022/06/10 00:50:43;;;;;;;4.40;2.28;;;;;;;-144.94;62.46;76941.88;5056503;28;20116;-89
2022/06/10 00:53:12;;;;;;;9.43;2.55;;;;;;;-144.94;62.51;76939.81;5056291;28;20061;-90
2022/06/10 00:55:39;;;;;;;6.70;2.55;;;;;;;-144.94;62.89;76946.00;5056147;28;20044;-90
2022/06/10 00:58:26;;;;;;;6.30;2.08;;;;;;;-144.94;63.20;76958.34;5056381;28;20028;-90
2022/06/10 01:00:52;;;;;;;4.78;2.20;;;;;;;-144.94;63.20;76962.47;5059123;28;20029;-88
2022/06/10 01:03:17;;;;;;;4.43;2.20;;;;;;;-144.94;63.34;76964.53;5059179;28;20046;-86
2022/06/10 01:05:43;;;;;;;7.18;2.80;;;;;;;-144.94;62.95;76958.34;5043426;28;20033;-88
2022/06/10 01:08:11;;;;;;;5.97;2.28;;;;;;;-144.94;62.75;76958.34;5055838;28;20433;-86
2022/06/10 01:11:01;;;;;;;4.32;2.13;;;;;;;-144.94;62.66;76950.13;5055331;28;20086;-87
2022/06/10 01:13:42;;;;;;;3.97;2.00;;;;;;;-144.94;62.44;76950.13;5037882;28;20086;-89
2022/06/10 01:16:27;;;;;;;6.13;3.15;;;;;;;-144.94;62.69;76956.28;5055619;28;20059;-90
2022/06/10 01:19:23;;;;;;;5.03;2.70;;;;;;;-144.94;62.48;76948.06;5055794;28;20040;-88
2022/06/10 01:22:27;;;;;;;4.75;2.40;;;;;;;-144.94;62.84;76962.47;5037866;28;20029;-89
2022/06/10 01:25:21;;;;;;;4.45;2.30;;;;;;;-144.94;62.97;76966.59;5057817;28;20040;-91
2022/06/10 01:28:05;;;;;;;5.78;2.53;;;;;;;-144.94;62.34;76948.06;5038282;28;20033;-89
2022/06/10 01:30:49;;;;;;;6.97;2.20;;;;;;;-144.94;62.27;76946.00;5055542;28;20336;-89
2022/06/10 01:33:43;;;;;;;7.07;2.20;;;;;;;-144.94;62.42;76954.22;5055357;28;20123;-88
2022/06/10 01:36:09;;;;;;;5.70;2.70;;;;;;;-144.94;62.35;76952.19;5055555;28;20033;-87
2022/06/10 01:38:39;;;;;;;5.33;2.53;;;;;;;-144.94;62.03;76952.19;5055561;28;20079;-90
2022/06/10 01:41:11;;;;;;;7.55;3.05;;;;;;;-144.94;62.20;76960.41;5055704;28;20059;-91
2022/06/10 01:44:08;;;;;;;6.03;2.75;;;;;;;-144.94;61.75;76946.00;5055736;28;20029;-90
2022/06/10 01:46:37;;;;;;;4.72;2.45;;;;;;;-144.94;61.13;76935.72;5055062;28;20360;-88
2022/06/10 01:49:19;;;;;;;11.32;3.95;;;;;;;-144.94;60.87;76935.72;5055189;28;20124;-89
2022/06/10 01:51:49;;;;;;;6.05;2.42;;;;;;;-144.94;61.30;76946.00;5037337;28;20071;-88
2022/06/10 01:54:25;;;;;;;5.90;2.75;;;;;;;-144.94;61.07;76931.59;5054954;28;20086;-87
2022/06/10 01:56:56;;;;;;;7.35;3.03;;;;;;;-144.94;60.69;76923.34;5053851;28;20430;-89
2022/06/10 01:59:29;;;;;;;6.85;3.25;;;;;;;-144.94;60.59;76929.53;5055309;28;20455;-87
2022/06/10 02:02:05;;;;;;;6.55;2.70;;;;;;;-144.94;60.80;76935.72;5055368;28;20043;-88
2022/06/10 02:04:35;;;;;;;5.75;3.08;;;;;;;-144.94;60.96;76941.88;5054973;28;20085;-88
2022/06/10 02:07:06;;;;;;;7.97;3.05;;;;;;;-144.94;60.41;76927.47;5054985;28;20033;-91
2022/06/10 02:09:39;;;;;;;6.70;2.67;;;;;;;-144.94;60.69;76931.59;5057681;28;20033;-91
2022/06/10 02:12:12;;;;;;;5.30;2.97;;;;;;;-144.94;60.30;76927.47;5058852;28;20333;-88
2022/06/10 02:14:50;;;;;;;5.22;2.90;;;;;;;-144.94;60.55;76929.53;5055066;28;20037;-89
2022/06/10 02:17:18;;;;;;;7.93;3.63;;;;;;;-144.94;60.54;76939.81;5055212;28;20032;-88
2022/06/10 02:19:52;;;;;;;6.82;3.05;;;;;;;-144.94;60.80;76939.81;5054602;28;20029;-87
2022/06/10 02:22:37;;;;;;;7.35;3.50;;;;;;;-144.94;60.85;76941.88;5055503;28;20056;-89
2022/06/10 02:25:09;;;;;;;6.40;3.25;;;;;;;-144.94;61.19;76960.41;5055686;28;20459;-90
2022/06/10 02:27:38;;;;;;;10.30;3.63;;;;;;;-144.94;61.12;76968.66;5056031;28;20051;-86
2022/06/10 02:30:17;;;;;;;6.10;2.75;;;;;;;-144.94;61.29;76974.81;5036699;28;20357;-88
2022/06/10 02:32:44;;;;;;;5.05;3.17;;;;;;;-144.94;61.09;76962.47;5073145;28;20033;-87
2022/06/10 02:35:13;;;;;;;7.68;3.40;;;;;;;-144.94;61.09;76960.41;5064004;28;20028;-87
2022/06/10 02:38:06;;;;;;;6.97;3.10;;;;;;;-144.94;61.21;76974.81;5054393;28;20060;-87
2022/06/10 02:41:05;;;;;;;7.20;3.35;;;;;;;-144.94;61.38;76989.25;5054415;28;20095;-86
2022/06/10 02:44:01;;;;;;;5.82;3.10;;;;;;;-144.94;61.61;76999.53;5049381;28;20124;-87
2022/06/10 02:46:33;;;;;;;6.28;2.97;;;;;;;-144.94;61.86;77001.59;5053568;28;20059;-87
2022/06/10 02:49:15;;;;;;;6.07;3.20;;;;;;;-144.94;62.42;77011.88;5036571;28;20055;-87
2022/06/10 02:51:40;;;;;;;8.15;3.47;;;;;;;-144.94;62.29;77022.19;5054429;28;20067;-87
2022/06/10 02:54:23;;;;;;;7.53;3.90;;;;;;;-144.94;62.33;77028.34;5054590;28;20060;-87
2022/06/10 02:56:49;;;;;;;7.15;3.33;;;;;;;-144.94;62.50;77028.34;5057776;28;20055;-85
2022/06/10 03:02:44;;;;;;;9.57;3.20;;;;;;;-144.94;62.28;77030.41;5072906;28;20274;-85
2022/06/10 03:05:16;;;;;;;7.30;3.65;;;;;;;-144.94;62.81;77048.94;5071192;28;20041;-85
2022/06/10 03:07:56;;;;;;;9.82;3.22;;;;;;;-144.94;63.12;77048.94;5075653;28;20017;-86
2022/06/10 03:10:35;;;;;;;7.03;3.53;;;;;;;-144.94;63.04;77051.00;5074508;28;20020;-87
2022/06/10 03:13:26;;;;;;;6.45;3.25;;;;;;;-144.94;63.29;77044.84;5060332;28;20029;-88
2022/06/10 03:16:20;;;;;;;9.60;3.60;;;;;;;-144.94;63.48;77063.38;5043605;28;20029;-88
2022/06/10 03:18:59;;;;;;;9.23;3.50;;;;;;;-144.94;63.53;77065.41;5058572;28;20463;-87
2022/06/10 03:21:35;;;;;;;10.15;4.07;;;;;;;-144.94;63.35;77065.41;5060823;28;20029;-88
2022/06/10 03:29:27;;;;;;;8.60;3.55;;;;;;;-144.94;64.07;77094.25;5183217;22;20045;-86
2022/06/10 03:32:12;;;;;;;5.95;3.13;;;;;;;-144.94;63.54;77083.94;5105044;22;20042;-87
2022/06/10 03:34:43;;;;;;;6.38;2.92;;;;;;;-144.94;63.80;77088.06;5042696;28;20029;-88
2022/06/10 03:37:11;;;;;;;7.60;2.65;;;;;;;-144.94;63.96;77081.91;5036805;28;20028;-90
2022/06/10 03:39:39;;;;;;;5.55;2.90;;;;;;;-144.94;63.78;77073.66;5054528;28;20018;-89
2022/06/10 03:42:08;;;;;;;8.30;3.05;;;;;;;-144.94;63.56;77077.78;5052046;28;20034;-90
2022/06/10 03:44:33;;;;;;;5.78;3.40;;;;;;;-144.94;64.10;77100.44;5036566;28;20097;-89
2022/06/10 03:46:59;;;;;;;7.53;2.78;;;;;;;-144.94;64.09;77102.47;5042636;28;20114;-90
2022/06/10 03:49:40;;;;;;;;;;;;;;;-144.94;64.28;77110.72;5038230;28;20044;-88
2022/06/10 03:52:05;;;;;;;5.70;3.03;;;;;;;-144.94;64.16;77104.53;5037297;28;19978;-87
2022/06/10 03:54:31;;;;;;;10.65;3.65;;;;;;;-144.94;63.78;77096.31;5037709;28;20444;-90
2022/06/10 03:56:56;;;;;;;5.25;2.65;;;;;;;-144.94;64.00;77098.38;5037419;28;20033;-88
2022/06/10 03:59:22;;;;;;;;;;;;;;;-144.94;63.73;77098.38;5035909;28;20132;-88
2022/06/10 04:01:47;;;;;;;6.07;2.70;;;;;;;-144.94;63.71;77104.53;5036139;28;20023;-89
2022/06/10 04:04:12;;;;;;;6.53;3.03;;;;;;;-144.94;63.34;77102.47;5036724;28;20044;-87
2022/06/10 04:06:38;;;;;;;8.32;3.10;;;;;;;-144.94;63.71;77110.72;5036314;28;20034;-89
2022/06/10 04:09:04;;;;;;;4.47;2.72;;;;;;;-144.94;63.67;77114.84;5036584;28;20152;-89
2022/06/10 04:11:29;;;;;;;6.13;2.75;;;;;;;-144.94;63.74;77106.59;5038060;28;20076;-89
2022/06/10 04:13:55;;;;;;;6.85;3.55;;;;;;;-144.94;63.61;77102.47;5017551;28;20025;-89
2022/06/10 04:16:20;;;;;;;9.82;3.60;;;;;;;-144.94;63.88;77112.78;5017154;28;20041;-89
2022/06/10 04:18:45;;;;;;;6.03;2.40;;;;;;;-144.94;63.55;77102.47;5036782;28;20119;-91
2022/06/10 04:21:11;;;;;;;;;;;;;;;-144.94;63.63;77102.47;5038695;28;20372;-87
2022/06/10 04:23:36;;;;;;;7.47;2.63;;;;;;;-144.94;63.42;77102.47;5038702;28;20295;-89
2022/06/10 04:26:02;;;;;;;6.85;2.80;;;;;;;-144.94;63.75;77110.72;5042618;28;20037;-89
2022/06/10 04:28:28;;;;;;;9.90;3.03;;;;;;;-144.94;63.41;77108.66;5040657;28;20064;-88
2022/06/10 04:30:55;;;;;;;7.97;2.80;;;;;;;-144.94;63.05;77088.06;5038657;28;20021;-89
2022/06/10 04:33:21;;;;;;;6.80;2.70;;;;;;;-144.94;63.08;77090.13;5040185;28;20077;-89
2022/06/10 04:35:49;;;;;;;5.72;2.85;;;;;;;-144.94;62.86;77094.25;5041345;28;20034;-88
2022/06/10 04:38:16;;;;;;;7.28;2.83;;;;;;;-144.94;62.99;77083.94;5051801;28;20033;-89
2022/06/10 04:40:42;;;;;;;7.20;2.80;;;;;;;-144.94;62.88;77077.78;5048969;28;20029;-90
2022/06/10 04:43:08;;;;;;;6.00;2.92;;;;;;;-144.94;62.32;77067.47;5038446;28;20033;-89
2022/06/10 04:45:39;;;;;;;4.78;2.00;;;;;;;-144.94;62.32;77061.31;5037743;28;20105;-86
2022/06/10 04:48:04;;;;;;;5.97;2.35;;;;;;;-144.94;62.12;77061.31;5036488;28;20053;-86
2022/06/10 04:50:30;;;;;;;4.90;2.40;;;;;;;-144.94;61.82;77040.72;5036536;28;20028;-85
2022/06/10 04:52:56;;;;;;;5.22;2.65;;;;;;;-144.94;61.78;77038.66;5036207;28;20084;-81
2022/06/10 04:55:22;;;;;;;;;;;;;;;-144.94;62.03;77044.84;5035756;28;20029;-84
2022/06/10 04:57:48;;;;;;;9.98;2.50;;;;;;;-144.94;61.38;77018.06;5035646;28;19939;-83
2022/06/10 05:00:26;;;;;;;6.70;2.60;;;;;;;-144.94;61.08;77003.66;5035709;28;20482;-83
2022/06/10 05:02:52;;;;;;;4.82;2.42;;;;;;;-144.94;60.96;76987.19;5035828;28;20041;-84
2022/06/10 05:05:17;;;;;;;7.30;2.50;;;;;;;-144.94;60.78;76983.06;5036171;28;20406;-85
2022/06/10 05:07:42;;;;;;;5.82;2.10;;;;;;;-144.94;60.74;76985.13;5036719;28;20463;-86
2022/06/10 05:10:08;;;;;;;;;;;;;;;-144.94;60.20;76966.59;5019108;28;20032;-85
2022/06/10 05:12:34;;;;;;;6.82;2.55;;;;;;;-144.94;60.11;76948.06;5035781;28;19909;-84
2022/06/10 05:14:59;;;;;;;6.25;2.42;;;;;;;-144.94;59.61;76943.94;5038045;28;20037;-80
2022/06/10 05:17:25;;;;;;;;;;;;;;;-144.94;59.46;76923.34;5037563;28;20135;-83
2022/06/10 05:19:50;;;;;;;8.70;2.83;;;;;;;-144.94;59.68;76939.81;5035180;28;19913;-83
2022/06/10 05:22:15;;;;;;;5.18;2.30;;;;;;;-144.94;59.07;76915.13;5035188;28;20600;-83
2022/06/10 05:24:42;;;;;;;;;;;;;;;-144.94;58.77;76906.88;5035580;28;20084;-84
2022/06/10 05:27:07;;;;;;;4.88;1.83;;;;;;;-144.94;58.86;76896.59;5034526;28;19924;-85
2022/06/10 05:29:32;;;;;;;3.45;1.63;;;;;;;-144.94;58.64;76876.00;5034932;28;20041;-85
2022/06/10 05:31:58;;;;;;;;;;;;;;;-144.94;58.00;76867.75;5035015;28;20052;-85
2022/06/10 05:37:08;;;;;;;4.82;1.73;;;;;;;-144.94;58.27;76876.00;5034728;28;20099;-86
2022/06/10 05:39:33;;;;;;;4.03;1.85;;;;;;;-144.94;58.10;76863.66;5035079;28;20029;-84
2022/06/10 05:42:05;;;;;;;;;;;;;;;-144.94;58.07;76863.66;5035125;28;20045;-83
2022/06/10 05:44:36;;;;;;;5.55;2.30;;;;;;;-144.94;57.91;76873.94;5016433;28;19909;-84
2022/06/10 05:47:03;;;;;;;5.78;1.80;;;;;;;-144.94;57.57;76867.75;5035765;28;20485;-86
2022/06/10 05:49:29;;;;;;;6.15;2.35;;;;;;;-144.94;57.73;76876.00;5035883;28;20025;-84
2022/06/10 05:51:55;;;;;;;9.43;1.95;;;;;;;-144.94;57.84;76882.16;5038422;28;20101;-86
2022/06/10 05:54:22;;;;;;;4.95;1.70;;;;;;;-144.94;57.99;76888.34;5037630;28;20083;-88
2022/06/10 05:56:47;;;;;;;3.58;1.48;;;;;;;-144.94;57.99;76884.22;5036013;28;20065;-88
2022/06/10 05:59:14;;;;;;;7.05;2.47;;;;;;;-144.94;58.11;76880.13;5017345;28;20025;-89
2022/06/10 06:01:40;;;;;;;4.60;1.80;;;;;;;-144.94;57.43;76884.22;5035314;28;20034;-81
2022/06/10 06:04:05;;;;;;;;;;;;;;;-144.94;57.78;76880.13;5034725;28;20036;-83
2022/06/10 06:06:31;;;;;;;5.35;1.80;;;;;;;-144.94;58.17;76902.75;5034059;28;20275;-83
2022/06/10 06:08:56;;;;;;;;;;;;;;;-144.94;58.42;76906.88;5034769;28;20029;-83
2022/06/10 06:11:24;;;;;;;4.80;2.10;;;;;;;-144.94;58.29;76900.69;5034082;28;19908;-83
2022/06/10 06:13:49;;;;;;;5.45;2.78;;;;;;;-144.94;58.63;76900.69;5034272;28;20033;-84
2022/06/10 06:16:17;;;;;;;4.68;1.80;;;;;;;-144.94;58.02;76890.41;5034064;28;20076;-83
2022/06/10 06:18:43;;;;;;;3.88;1.77;;;;;;;-144.94;58.17;76892.47;5033757;28;20037;-83
2022/06/10 06:21:09;;;;;;;;;;;;;;;-144.94;57.97;76888.34;5016392;28;20040;-84
2022/06/10 06:23:34;;;;;;;4.35;1.50;;;;;;;-144.94;57.82;76886.28;5034577;28;19909;-84
2022/06/10 06:26:00;;;;;;;;;;;;;;;-144.94;57.41;76888.34;5016741;28;20030;-82
2022/06/10 06:28:27;;;;;;;3.00;1.48;;;;;;;-144.94;57.32;76880.13;5034050;28;19909;-84
2022/06/10 06:30:53;;;;;;;4.03;1.83;;;;;;;-144.94;56.89;76884.22;5033522;28;20132;-84
2022/06/10 06:33:20;;;;;;;2.97;1.48;;;;;;;-144.94;56.13;76867.75;5033485;28;20080;-83
2022/06/10 06:35:51;;;;;;;4.15;1.52;;;;;;;-144.94;55.62;76855.41;5032874;28;20041;-84
2022/06/10 06:38:16;;;;;;;2.97;1.10;;;;;;;-144.94;55.39;76843.06;5033684;28;20360;-81
2022/06/10 06:40:43;;;;;;;3.65;1.23;;;;;;;-144.94;55.19;76843.06;5033280;28;20044;-82
2022/06/10 06:43:11;;;;;;;5.25;1.10;;;;;;;-144.94;55.14;76841.00;5032516;28;20035;-81
2022/06/10 06:45:38;;;;;;;3.05;1.45;;;;;;;-144.94;55.20;76853.34;5033655;28;20092;-83
2022/06/10 06:48:07;;;;;;;5.00;1.25;;;;;;;-144.94;54.83;76834.81;5033234;28;20124;-84
2022/06/10 06:50:34;;;;;;;2.92;0.90;;;;;;;-144.94;55.04;76845.13;5015067;28;20030;-85
2022/06/10 06:53:01;;;;;;;3.80;0.95;;;;;;;-144.94;54.30;76834.81;5033538;28;20120;-84
2022/06/10 06:55:26;;;;;;;3.47;1.00;;;;;;;-144.94;54.30;76830.69;5015826;28;20029;-84
2022/06/10 06:57:52;;;;;;;;;;;;;;;-144.94;54.30;76826.59;5033282;28;20474;-83
2022/06/10 07:00:19;;;;;;;5.47;1.38;;;;;;;-144.94;54.10;76814.22;5015495;28;19928;-82
2022/06/10 07:02:44;;;;;;;3.05;1.17;;;;;;;-144.94;53.84;76824.53;5032705;28;20032;-84
2022/06/10 07:05:12;;;;;;;4.13;1.00;;;;;;;-144.94;54.16;76830.69;5032507;28;20025;-85
2022/06/10 07:07:38;;;;;;;4.70;1.48;;;;;;;-144.94;54.55;76818.34;5033229;28;20030;-84
2022/06/10 07:10:03;;;;;;;;;;;;;;;-144.94;53.95;76812.16;5033463;28;20025;-82
2022/06/10 07:12:28;;;;;;;3.00;1.15;;;;;;;-144.94;54.28;76812.16;5032553;28;19924;-82
2022/06/10 07:14:54;;;;;;;;;;;;;;;-144.94;54.22;76808.06;5033150;28;20123;-82
2022/06/10 07:17:20;;;;;;;5.10;1.25;;;;;;;-144.94;53.74;76812.16;5032754;28;20343;-84
2022/06/10 07:19:48;;;;;;;;;;;;;;;-144.94;54.04;76806.00;5033351;28;20456;-85
2022/06/10 07:22:15;;;;;;;4.18;1.10;;;;;;;-144.94;54.81;76826.59;5032711;28;19995;-83
2022/06/10 07:24:41;;;;;;;4.30;1.25;;;;;;;-144.94;54.07;76810.13;5015060;28;20036;-84
2022/06/10 07:27:07;;;;;;;3.25;1.00;;;;;;;-144.94;53.98;76801.88;5032310;28;20095;-83
2022/06/10 07:29:32;;;;;;;;;;;;;;;-144.94;53.79;76785.41;5032721;28;20104;-83
2022/06/10 07:31:58;;;;;;;5.55;1.23;;;;;;;-144.94;53.98;76779.22;5032297;28;19917;-83
2022/06/10 07:34:23;;;;;;;;;;;;;;;-144.94;54.14;76781.28;5032888;28;20032;-81
2022/06/10 07:36:48;;;;;;;6.23;1.60;;;;;;;-144.94;54.02;76768.94;5032549;28;19983;-82
2022/06/10 07:39:14;;;;;;;;;;;;;;;-144.94;54.14;76771.00;5032723;28;20104;-82
2022/06/10 07:41:58;;;;;;;2.53;1.23;;;;;;;-144.94;53.72;76754.53;5032276;28;20107;-82
2022/06/10 07:44:25;;;;;;;3.85;1.33;;;;;;;-144.94;53.78;76756.59;5032289;28;20722;-83
2022/06/10 07:46:55;;;;;;;3.50;1.30;;;;;;;-144.94;53.88;76746.28;5032119;28;20029;-82
2022/06/10 07:49:23;;;;;;;3.42;1.30;;;;;;;-144.94;53.83;76748.34;5032495;28;20456;-83
2022/06/10 07:51:48;;;;;;;7.53;1.85;;;;;;;-144.94;53.66;76719.53;5032764;28;20100;-82
2022/06/10 07:54:14;;;;;;;;;;;;;;;-144.94;53.17;76707.16;5032696;28;20108;-83
2022/06/10 07:56:39;;;;;;;6.23;1.60;;;;;;;-144.94;53.30;76686.59;5036087;28;19917;-83
2022/06/10 07:59:05;;;;;;;;;;;;;;;-144.94;52.59;76666.00;5036406;28;20761;-82
2022/06/10 08:01:31;;;;;;;4.07;1.35;;;;;;;-144.94;52.61;76672.16;5036503;28;20011;-83
2022/06/10 08:03:57;;;;;;;;;;;;;;;-144.94;52.54;76668.06;5036545;28;20195;-83
2022/06/10 08:06:24;;;;;;;4.78;1.20;;;;;;;-144.94;52.51;76659.81;5036258;28;19916;-83
2022/06/10 08:08:50;;;;;;;7.70;2.70;;;;;;;-144.94;52.48;76639.22;5036436;28;20033;-82
2022/06/10 08:11:15;;;;;;;;;;;;;;;-144.94;52.14;76612.47;5019083;28;20139;-82
2022/06/10 08:13:41;;;;;;;5.95;1.80;;;;;;;-144.94;51.75;76581.59;5018380;28;19999;-81
2022/06/10 08:16:06;;;;;;;;;;;;;;;-144.94;51.14;76552.75;5036232;28;20053;-82
2022/06/10 08:18:33;;;;;;;5.63;1.30;;;;;;;-144.94;51.37;76552.75;5036674;28;19913;-83
2022/06/10 08:23:44;;;;;;;2.65;1.10;;;;;;;-144.94;50.25;76478.66;5020929;28;20044;-83
2022/06/10 08:26:10;;;;;;;6.13;1.10;;;;;;;-144.94;49.71;76449.81;5035416;28;20037;-82
2022/06/10 08:28:38;;;;;;;3.38;0.93;;;;;;;-144.94;49.27;76456.00;5035316;28;20121;-80
2022/06/10 08:31:04;;;;;;;3.33;0.93;;;;;;;-144.94;49.20;76462.19;5035911;28;20440;-84
2022/06/10 08:33:29;;;;;;;5.45;1.40;;;;;;;-144.94;49.06;76443.66;5035670;28;20127;-81
2022/06/10 08:35:55;;;;;;;5.10;1.10;;;;;;;-144.94;48.75;76439.53;5035886;28;20064;-83
2022/06/10 08:38:20;;;;;;;;;;;;;;;-144.94;48.93;76447.75;5035933;28;20028;-84
2022/06/10 08:40:58;;;;;;;4.32;1.02;;;;;;;-144.94;48.32;76445.69;5035438;28;20347;-81
2022/06/10 08:43:51;;;;;;;2.25;1.10;;;;;;;-144.94;48.87;76464.22;5035001;28;20128;-83
2022/06/10 08:46:50;;;;;;;7.47;1.60;;;;;;;-144.94;48.98;76433.34;5035436;28;20036;-83
2022/06/10 08:49:22;;;;;;;4.35;1.45;;;;;;;-144.94;47.95;76396.28;5035535;28;20029;-82
2022/06/10 08:51:57;;;;;;;5.28;1.40;;;;;;;-144.94;48.14;76406.59;5035534;28;20044;-83
2022/06/10 08:54:35;;;;;;;6.05;1.15;;;;;;;-144.94;47.92;76406.59;5017850;28;20034;-83
2022/06/10 08:57:06;;;;;;;4.65;1.08;;;;;;;-144.94;48.04;76402.47;5035282;28;20061;-82
2022/06/10 08:59:44;;;;;;;3.03;1.25;;;;;;;-144.94;48.34;76408.66;5035219;28;20030;-83
2022/06/10 09:02:28;;;;;;;4.05;0.98;;;;;;;-144.94;48.27;76396.28;5034673;28;20093;-82
2022/06/10 09:05:03;;;;;;;4.85;0.95;;;;;;;-144.94;49.17;76435.41;5035063;28;20033;-83
2022/06/10 09:07:38;;;;;;;5.43;0.80;;;;;;;-144.94;48.82;76416.88;5035056;28;20048;-83
2022/06/10 09:10:07;;;;;;;2.97;0.90;;;;;;;-144.94;49.15;76437.47;5035591;28;20032;-84
2022/06/10 09:12:50;;;;;;;2.30;0.70;;;;;;;-144.94;49.18;76443.66;5035315;28;20117;-83
2022/06/10 09:15:18;;;;;;;3.33;1.00;;;;;;;-144.94;48.75;76427.19;5035152;28;20112;-77
2022/06/10 09:17:54;;;;;;;3.80;0.70;;;;;;;-144.94;48.38;76414.81;5034342;28;20125;-78
2022/06/10 09:20:35;;;;;;;3.60;1.00;;;;;;;-144.94;48.41;76412.75;5035492;28;20033;-78
2022/06/10 09:23:08;;;;;;;1.92;0.80;;;;;;;-144.94;48.40;76410.72;5034593;28;20256;-78
2022/06/10 09:25:56;;;;;;;4.55;0.85;;;;;;;-144.94;48.97;76435.41;5034925;28;20048;-79
2022/06/10 09:28:22;;;;;;;2.85;0.70;;;;;;;-144.94;49.47;76431.28;5034635;28;20041;-79
2022/06/10 09:30:56;;;;;;;2.10;0.73;;;;;;;-144.94;50.54;76464.22;5034440;28;20049;-79
2022/06/10 09:33:40;;;;;;;2.72;1.00;;;;;;;-144.94;51.18;76503.34;5034397;28;20092;-78
2022/06/10 09:36:11;;;;;;;1.85;0.77;;;;;;;-144.94;52.33;76550.69;5033962;28;20077;-79
2022/06/10 09:38:47;;;;;;;3.60;1.35;;;;;;;-144.94;53.34;76577.47;5039875;28;20083;-85
2022/06/10 09:41:40;;;;;;;5.30;1.40;;;;;;;-144.94;54.12;76600.09;5041197;28;20033;-84
2022/06/10 09:44:32;;;;;;;2.47;1.00;;;;;;;-144.94;54.00;76616.59;5036749;28;20043;-84
2022/06/10 09:47:14;;;;;;;2.70;0.90;;;;;;;-144.94;54.39;76602.16;5025680;28;20092;-86
2022/06/10 09:49:48;;;;;;;6.80;1.00;;;;;;;-144.94;53.72;76589.81;5041190;28;20037;-86
2022/06/10 09:52:15;;;;;;;4.53;0.68;;;;;;;-144.94;53.12;76587.75;5040130;28;20033;-86
2022/06/10 09:54:58;;;;;;;1.65;0.70;;;;;;;-144.94;53.47;76593.94;5043337;28;20075;-87
2022/06/10 09:57:42;;;;;;;4.15;0.90;;;;;;;-144.94;53.20;76585.69;5025372;28;20053;-86
2022/06/10 10:00:19;;;;;;;2.10;0.65;;;;;;;-144.94;53.30;76593.94;5023896;28;20103;-86
2022/06/10 10:03:03;;;;;;;5.05;1.23;;;;;;;-144.94;52.91;76589.81;5044965;28;20108;-91
2022/06/10 10:05:28;;;;;;;3.03;0.95;;;;;;;-144.94;52.51;76567.16;5042336;28;20099;-87
2022/06/10 10:08:00;;;;;;;;;;;;;;;-144.94;52.26;76542.47;5043050;28;20030;-84
2022/06/10 10:10:31;;;;;;;3.92;0.93;;;;;;;-144.94;52.11;76546.59;5037419;28;19943;-84
2022/06/10 10:13:11;;;;;;;1.58;0.70;;;;;;;-144.94;52.00;76509.53;5041842;28;20034;-86
2022/06/10 10:15:58;;;;;;;2.40;0.85;;;;;;;-144.94;52.15;76488.94;5043373;28;20029;-86
2022/06/10 10:18:33;;;;;;;1.65;0.68;;;;;;;-144.94;50.80;76472.47;5035324;28;20517;-84
2022/06/10 10:21:19;;;;;;;2.73;0.83;;;;;;;-144.94;50.86;76449.81;5037593;28;20119;-85
2022/06/10 10:23:51;;;;;;;2.60;0.70;;;;;;;-144.94;49.60;76410.72;5023572;28;20451;-86
2022/06/10 10:26:23;;;;;;;3.58;1.15;;;;;;;-144.94;48.88;76390.13;5042477;28;20034;-86
2022/06/10 10:28:55;;;;;;;3.65;0.80;;;;;;;-144.94;49.39;76379.81;5040239;28;20079;-86
2022/06/10 10:31:26;;;;;;;2.35;1.00;;;;;;;-144.94;49.19;76353.06;5038400;28;20052;-82
2022/06/10 10:33:52;;;;;;;3.58;1.30;;;;;;;-144.94;48.81;76324.25;5019140;28;20037;-84
2022/06/10 10:36:22;;;;;;;3.10;1.00;;;;;;;-144.94;48.97;76330.41;5041692;28;20125;-83
2022/06/10 10:38:50;;;;;;;4.18;1.02;;;;;;;-144.94;47.74;76311.88;5038235;28;20033;-88
2022/06/10 10:41:40;;;;;;;2.53;1.00;;;;;;;-144.94;48.00;76307.78;5039329;28;20148;-88
2022/06/10 10:44:19;;;;;;;3.97;1.00;;;;;;;-144.94;47.55;76305.72;5037031;28;20039;-84
2022/06/10 10:47:03;;;;;;;3.55;0.95;;;;;;;-144.94;47.70;76301.59;5039759;28;20093;-89
2022/06/10 10:49:32;;;;;;;3.35;1.10;;;;;;;-144.94;47.57;76291.31;5042360;28;20067;-87
2022/06/10 10:51:58;;;;;;;2.70;1.00;;;;;;;-144.94;47.22;76266.59;5041439;28;20075;-86
2022/06/10 10:54:31;;;;;;;2.88;1.15;;;;;;;-144.94;47.44;76268.66;5041398;28;20152;-86
2022/06/10 10:56:58;;;;;;;2.50;1.00;;;;;;;-144.94;47.74;76276.91;5038122;28;20113;-86
2022/06/10 10:59:35;;;;;;;3.95;1.10;;;;;;;-144.94;47.93;76276.91;5042794;28;20025;-91
2022/06/10 11:02:01;;;;;;;;;;;;;;;-144.94;47.73;76283.06;5041507;28;20033;-85
2022/06/10 11:04:27;;;;;;;2.03;0.80;;;;;;;-144.94;47.36;76278.97;5036317;28;19963;-83
2022/06/10 11:07:13;;;;;;;6.78;3.03;;;;;;;-144.94;47.75;76307.78;5018537;28;20557;-84
2022/06/10 11:09:51;;;;;;;3.17;1.20;;;;;;;-144.94;47.71;76270.72;5019515;28;20534;-86
2022/06/10 11:12:20;;;;;;;2.80;1.00;;;;;;;-144.94;47.92;76297.47;5020870;28;20052;-87
2022/06/10 11:14:48;;;;;;;2.47;1.05;;;;;;;-144.94;48.05;76283.06;5037909;28;20037;-86
2022/06/10 11:17:19;;;;;;;3.75;1.27;;;;;;;-144.94;48.08;76266.59;5041167;28;20033;-86
2022/06/10 11:20:11;;;;;;;4.13;1.50;;;;;;;-144.94;47.23;76227.50;5019282;28;20442;-85
2022/06/10 11:22:39;;;;;;;3.50;1.10;;;;;;;-144.94;46.74;76229.53;5023524;28;20099;-86
2022/06/10 11:25:14;;;;;;;2.22;1.00;;;;;;;-144.94;46.97;76200.72;5035582;28;20036;-84
2022/06/10 11:27:55;;;;;;;2.42;0.90;;;;;;;-144.94;45.96;76159.56;5037069;28;20103;-86
2022/06/10 11:30:23;;;;;;;2.80;1.17;;;;;;;-144.94;44.88;76145.16;5042498;28;20021;-82
2022/06/10 11:32:48;;;;;;;2.00;0.80;;;;;;;-144.94;45.66;76167.78;5044584;28;20053;-85
2022/06/10 11:35:22;;;;;;;1.43;0.60;;;;;;;-144.94;45.33;76200.72;5044398;28;20048;-88
2022/06/10 11:38:19;;;;;;;2.53;0.93;;;;;;;-144.94;45.26;76204.84;5042765;28;20279;-87
2022/06/10 11:40:51;;;;;;;1.38;0.70;;;;;;;-144.94;45.22;76178.09;5036171;28;20034;-85
2022/06/10 11:43:42;;;;;;;2.10;0.80;;;;;;;-144.94;45.35;76176.03;5041517;28;20044;-87
2022/06/10 11:46:25;;;;;;;3.10;0.70;;;;;;;-144.94;45.06;76155.44;5043612;28;20029;-86
2022/06/10 11:49:02;;;;;;;2.10;0.80;;;;;;;-144.94;45.30;76167.78;5041166;28;20056;-84
2022/06/10 11:51:31;;;;;;;4.05;0.85;;;;;;;-144.94;45.48;76155.44;5043034;28;20044;-90
2022/06/10 11:54:35;;;;;;;2.88;0.90;;;;;;;-144.94;45.23;76124.56;5044534;28;20033;-86
2022/06/10 12:00:14;;;;;;;5.53;0.90;;;;;;;-144.94;44.16;76077.22;5040893;28;20072;-83
2022/06/10 12:02:46;;;;;;;3.58;0.98;;;;;;;-144.94;43.93;76073.09;5041425;28;20124;-83